sensor_id;sensor_type;location;lat;lon;timestamp;temperature;humidity
26035;DHT22;13809;48.632;11.576;2023-08-20T00:03:31;26.30;36.40
26035;DHT22;13809;48.632;11.576;2023-08-20T00:08:34;26.20;37.30
26035;DHT22;13809;48.632;11.576;2023-08-20T00:13:37;26.10;36.60
26035;DHT22;13809;48.632;11.576;2023-08-20T00:18:43;26.00;36.90
26035;DHT22;13809;48.632;11.576;2023-08-20T00:23:46;25.80;37.90
26035;DHT22;13809;48.632;11.576;2023-08-20T00:28:50;25.80;37.60
26035;DHT22;13809;48.632;11.576;2023-08-20T00:33:54;25.80;37.50
26035;DHT22;13809;48.632;11.576;2023-08-20T00:39:08;25.90;38.20
26035;DHT22;13809;48.632;11.576;2023-08-20T00:44:11;26.00;37.50
26035;DHT22;13809;48.632;11.576;2023-08-20T00:49:16;26.00;37.60
26035;DHT22;13809;48.632;11.576;2023-08-20T00:54:20;26.00;38.30
26035;DHT22;13809;48.632;11.576;2023-08-20T00:59:23;25.90;37.70
26035;DHT22;13809;48.632;11.576;2023-08-20T01:04:28;25.80;37.70
26035;DHT22;13809;48.632;11.576;2023-08-20T01:09:42;25.80;38.60
26035;DHT22;13809;48.632;11.576;2023-08-20T01:14:46;25.70;38.90
26035;DHT22;13809;48.632;11.576;2023-08-20T01:19:50;25.70;38.10
26035;DHT22;13809;48.632;11.576;2023-08-20T01:25:01;25.60;38.60
26035;DHT22;13809;48.632;11.576;2023-08-20T01:30:09;25.50;39.40
26035;DHT22;13809;48.632;11.576;2023-08-20T01:35:13;25.40;39.10
26035;DHT22;13809;48.632;11.576;2023-08-20T01:40:16;25.30;38.70
26035;DHT22;13809;48.632;11.576;2023-08-20T01:45:21;25.30;38.90
26035;DHT22;13809;48.632;11.576;2023-08-20T01:50:24;25.30;39.40
26035;DHT22;13809;48.632;11.576;2023-08-20T01:55:27;25.40;38.90
26035;DHT22;13809;48.632;11.576;2023-08-20T02:00:35;25.40;38.90
26035;DHT22;13809;48.632;11.576;2023-08-20T02:05:38;25.40;39.40
26035;DHT22;13809;48.632;11.576;2023-08-20T02:10:41;25.40;38.80
26035;DHT22;13809;48.632;11.576;2023-08-20T02:15:46;25.40;38.70
26035;DHT22;13809;48.632;11.576;2023-08-20T02:20:49;25.40;39.30
26035;DHT22;13809;48.632;11.576;2023-08-20T02:25:52;25.40;38.90
26035;DHT22;13809;48.632;11.576;2023-08-20T02:30:57;25.40;38.90
26035;DHT22;13809;48.632;11.576;2023-08-20T02:36:02;25.40;39.30
26035;DHT22;13809;48.632;11.576;2023-08-20T02:41:05;25.40;38.90
26035;DHT22;13809;48.632;11.576;2023-08-20T02:46:10;25.40;38.90
26035;DHT22;13809;48.632;11.576;2023-08-20T02:51:13;25.30;39.00
26035;DHT22;13809;48.632;11.576;2023-08-20T02:56:17;25.30;38.70
26035;DHT22;13809;48.632;11.576;2023-08-20T03:01:23;25.20;38.70
26035;DHT22;13809;48.632;11.576;2023-08-20T03:06:27;25.00;39.50
26035;DHT22;13809;48.632;11.576;2023-08-20T03:11:30;24.80;38.90
26035;DHT22;13809;48.632;11.576;2023-08-20T03:16:35;24.60;39.40
26035;DHT22;13809;48.632;11.576;2023-08-20T03:21:38;24.60;40.50
26035;DHT22;13809;48.632;11.576;2023-08-20T03:26:41;24.50;39.90
26035;DHT22;13809;48.632;11.576;2023-08-20T03:31:45;24.50;39.90
26035;DHT22;13809;48.632;11.576;2023-08-20T03:36:48;24.50;40.50
26035;DHT22;13809;48.632;11.576;2023-08-20T03:41:52;24.40;39.90
26035;DHT22;13809;48.632;11.576;2023-08-20T03:46:57;24.30;40.30
26035;DHT22;13809;48.632;11.576;2023-08-20T03:52:00;24.20;40.20
26035;DHT22;13809;48.632;11.576;2023-08-20T03:57:04;24.20;40.20
26035;DHT22;13809;48.632;11.576;2023-08-20T04:02:09;24.30;40.30
26035;DHT22;13809;48.632;11.576;2023-08-20T04:07:12;24.30;40.30
26035;DHT22;13809;48.632;11.576;2023-08-20T04:12:15;24.20;40.20
26035;DHT22;13809;48.632;11.576;2023-08-20T04:17:19;24.30;40.30
26035;DHT22;13809;48.632;11.576;2023-08-20T04:22:23;24.30;40.30
26035;DHT22;13809;48.632;11.576;2023-08-20T04:27:27;24.30;40.30
26035;DHT22;13809;48.632;11.576;2023-08-20T04:32:31;24.30;40.30
26035;DHT22;13809;48.632;11.576;2023-08-20T04:37:34;24.20;40.40
26035;DHT22;13809;48.632;11.576;2023-08-20T04:42:38;24.10;40.10
26035;DHT22;13809;48.632;11.576;2023-08-20T04:47:43;24.00;40.30
26035;DHT22;13809;48.632;11.576;2023-08-20T04:52:46;23.90;41.20
26035;DHT22;13809;48.632;11.576;2023-08-20T04:57:49;23.80;40.80
26035;DHT22;13809;48.632;11.576;2023-08-20T05:02:54;23.70;41.00
26035;DHT22;13809;48.632;11.576;2023-08-20T05:07:58;23.70;41.50
26035;DHT22;13809;48.632;11.576;2023-08-20T05:13:01;23.80;41.40
26035;DHT22;13809;48.632;11.576;2023-08-20T05:18:06;23.80;41.30
26035;DHT22;13809;48.632;11.576;2023-08-20T05:23:09;23.80;41.90
26035;DHT22;13809;48.632;11.576;2023-08-20T05:28:12;23.80;41.30
26035;DHT22;13809;48.632;11.576;2023-08-20T05:33:17;23.80;41.50
26035;DHT22;13809;48.632;11.576;2023-08-20T05:38:20;23.90;42.20
26035;DHT22;13809;48.632;11.576;2023-08-20T05:43:23;23.90;41.60
26035;DHT22;13809;48.632;11.576;2023-08-20T05:48:28;24.00;41.80
26035;DHT22;13809;48.632;11.576;2023-08-20T05:53:31;24.00;42.30
26035;DHT22;13809;48.632;11.576;2023-08-20T05:58:34;24.00;42.00
26035;DHT22;13809;48.632;11.576;2023-08-20T06:03:39;24.00;42.20
26035;DHT22;13809;48.632;11.576;2023-08-20T06:08:42;24.00;43.00
26035;DHT22;13809;48.632;11.576;2023-08-20T06:14:03;24.10;42.50
26035;DHT22;13809;48.632;11.576;2023-08-20T06:19:08;24.20;42.40
26035;DHT22;13809;48.632;11.576;2023-08-20T06:24:12;24.30;42.60
26035;DHT22;13809;48.632;11.576;2023-08-20T06:29:15;24.30;42.60
26035;DHT22;13809;48.632;11.576;2023-08-20T06:34:20;24.40;42.60
26035;DHT22;13809;48.632;11.576;2023-08-20T06:39:23;24.50;43.10
26035;DHT22;13809;48.632;11.576;2023-08-20T06:44:26;24.60;42.60
26035;DHT22;13809;48.632;11.576;2023-08-20T06:49:31;24.80;42.90
26035;DHT22;13809;48.632;11.576;2023-08-20T06:54:34;24.90;43.30
26035;DHT22;13809;48.632;11.576;2023-08-20T06:59:37;25.10;43.00
26035;DHT22;13809;48.632;11.576;2023-08-20T07:04:42;25.20;43.00
26035;DHT22;13809;48.632;11.576;2023-08-20T07:09:45;25.30;43.30
26035;DHT22;13809;48.632;11.576;2023-08-20T07:14:48;25.50;42.70
26035;DHT22;13809;48.632;11.576;2023-08-20T07:19:53;25.60;42.60
26035;DHT22;13809;48.632;11.576;2023-08-20T07:24:56;25.80;42.70
26035;DHT22;13809;48.632;11.576;2023-08-20T07:29:59;25.90;42.50
26035;DHT22;13809;48.632;11.576;2023-08-20T07:35:05;26.10;42.60
26035;DHT22;13809;48.632;11.576;2023-08-20T07:40:12;26.40;42.60
26035;DHT22;13809;48.632;11.576;2023-08-20T07:45:17;26.50;42.00
26035;DHT22;13809;48.632;11.576;2023-08-20T07:50:22;26.70;42.00
26035;DHT22;13809;48.632;11.576;2023-08-20T07:55:25;26.90;42.20
26035;DHT22;13809;48.632;11.576;2023-08-20T08:00:28;27.10;42.30
26035;DHT22;13809;48.632;11.576;2023-08-20T08:05:33;27.40;41.40
26035;DHT22;13809;48.632;11.576;2023-08-20T08:10:36;27.80;40.70
26035;DHT22;13809;48.632;11.576;2023-08-20T08:15:40;28.10;40.40
26035;DHT22;13809;48.632;11.576;2023-08-20T08:20:44;28.40;40.10
26035;DHT22;13809;48.632;11.576;2023-08-20T08:25:47;28.70;39.10
26035;DHT22;13809;48.632;11.576;2023-08-20T08:30:51;29.10;38.90
26035;DHT22;13809;48.632;11.576;2023-08-20T08:35:55;29.40;38.60
26035;DHT22;13809;48.632;11.576;2023-08-20T08:40:59;29.70;37.20
26035;DHT22;13809;48.632;11.576;2023-08-20T08:46:07;29.90;37.40
26035;DHT22;13809;48.632;11.576;2023-08-20T08:51:12;30.20;35.80
26035;DHT22;13809;48.632;11.576;2023-08-20T08:56:15;30.50;36.00
26035;DHT22;13809;48.632;11.576;2023-08-20T09:01:19;30.80;35.90
26035;DHT22;13809;48.632;11.576;2023-08-20T09:06:24;31.10;35.30
26035;DHT22;13809;48.632;11.576;2023-08-20T09:11:34;31.30;33.90
26035;DHT22;13809;48.632;11.576;2023-08-20T09:16:37;31.50;32.50
26035;DHT22;13809;48.632;11.576;2023-08-20T09:21:46;31.80;33.70
26035;DHT22;13809;48.632;11.576;2023-08-20T09:26:56;32.00;31.30
26035;DHT22;13809;48.632;11.576;2023-08-20T09:32:01;32.20;31.70
26035;DHT22;13809;48.632;11.576;2023-08-20T09:37:09;32.40;31.30
26035;DHT22;13809;48.632;11.576;2023-08-20T09:42:14;32.60;30.40
26035;DHT22;13809;48.632;11.576;2023-08-20T09:47:17;32.80;31.40
26035;DHT22;13809;48.632;11.576;2023-08-20T09:52:28;33.00;30.30
26035;DHT22;13809;48.632;11.576;2023-08-20T09:57:36;33.20;28.90
26035;DHT22;13809;48.632;11.576;2023-08-20T10:02:40;33.40;29.40
26035;DHT22;13809;48.632;11.576;2023-08-20T10:07:45;33.50;29.40
26035;DHT22;13809;48.632;11.576;2023-08-20T10:12:49;33.60;28.70
26035;DHT22;13809;48.632;11.576;2023-08-20T10:17:52;33.80;29.10
26035;DHT22;13809;48.632;11.576;2023-08-20T10:23:01;33.90;28.90
26035;DHT22;13809;48.632;11.576;2023-08-20T10:28:13;34.10;27.40
26035;DHT22;13809;48.632;11.576;2023-08-20T10:33:17;34.20;26.90
26035;DHT22;13809;48.632;11.576;2023-08-20T10:38:22;34.30;28.00
26035;DHT22;13809;48.632;11.576;2023-08-20T10:43:30;34.40;27.20
26035;DHT22;13809;48.632;11.576;2023-08-20T10:48:34;34.60;26.40
26035;DHT22;13809;48.632;11.576;2023-08-20T10:53:41;34.70;26.90
26035;DHT22;13809;48.632;11.576;2023-08-20T10:58:46;34.70;25.60
26035;DHT22;13809;48.632;11.576;2023-08-20T11:03:50;34.80;25.70
26035;DHT22;13809;48.632;11.576;2023-08-20T11:08:55;34.80;25.30
26035;DHT22;13809;48.632;11.576;2023-08-20T11:14:05;34.80;25.10
26035;DHT22;13809;48.632;11.576;2023-08-20T11:19:09;34.90;24.40
26035;DHT22;13809;48.632;11.576;2023-08-20T11:24:14;35.00;25.30
26035;DHT22;13809;48.632;11.576;2023-08-20T11:29:17;35.00;24.10
26035;DHT22;13809;48.632;11.576;2023-08-20T11:34:22;35.10;24.60
26035;DHT22;13809;48.632;11.576;2023-08-20T11:39:29;35.10;24.90
26035;DHT22;13809;48.632;11.576;2023-08-20T11:44:42;35.20;23.20
26035;DHT22;13809;48.632;11.576;2023-08-20T11:49:45;35.20;23.80
26035;DHT22;13809;48.632;11.576;2023-08-20T11:54:50;35.20;23.80
26035;DHT22;13809;48.632;11.576;2023-08-20T11:59:53;35.20;23.70
26035;DHT22;13809;48.632;11.576;2023-08-20T12:04:56;35.20;23.80
26035;DHT22;13809;48.632;11.576;2023-08-20T12:10:19;35.20;23.80
26035;DHT22;13809;48.632;11.576;2023-08-20T12:15:24;35.30;23.50
26035;DHT22;13809;48.632;11.576;2023-08-20T12:20:29;35.30;23.00
26035;DHT22;13809;48.632;11.576;2023-08-20T12:25:35;35.30;23.00
26035;DHT22;13809;48.632;11.576;2023-08-20T12:30:38;35.40;22.40
26035;DHT22;13809;48.632;11.576;2023-08-20T12:35:42;35.40;23.30
26035;DHT22;13809;48.632;11.576;2023-08-20T12:40:47;35.40;23.20
26035;DHT22;13809;48.632;11.576;2023-08-20T12:45:50;35.40;22.00
26035;DHT22;13809;48.632;11.576;2023-08-20T12:50:53;35.50;22.70
26035;DHT22;13809;48.632;11.576;2023-08-20T12:55:58;35.50;22.20
26035;DHT22;13809;48.632;11.576;2023-08-20T13:01:01;35.50;21.70
26035;DHT22;13809;48.632;11.576;2023-08-20T13:06:05;35.50;22.00
26035;DHT22;13809;48.632;11.576;2023-08-20T13:11:13;35.60;21.60
26035;DHT22;13809;48.632;11.576;2023-08-20T13:16:20;35.60;20.90
26035;DHT22;13809;48.632;11.576;2023-08-20T13:21:23;35.60;21.70
26035;DHT22;13809;48.632;11.576;2023-08-20T13:26:27;35.60;21.00
26035;DHT22;13809;48.632;11.576;2023-08-20T13:31:30;35.70;20.30
26035;DHT22;13809;48.632;11.576;2023-08-20T13:36:34;35.70;20.90
26035;DHT22;13809;48.632;11.576;2023-08-20T13:41:41;35.70;20.90
26035;DHT22;13809;48.632;11.576;2023-08-20T13:46:45;35.80;20.40
26035;DHT22;13809;48.632;11.576;2023-08-20T13:51:48;35.80;20.40
26035;DHT22;13809;48.632;11.576;2023-08-20T13:56:55;35.80;20.70
26035;DHT22;13809;48.632;11.576;2023-08-20T14:01:58;35.80;20.20
26035;DHT22;13809;48.632;11.576;2023-08-20T14:07:01;35.90;20.60
26035;DHT22;13809;48.632;11.576;2023-08-20T14:12:07;35.90;20.60
26035;DHT22;13809;48.632;11.576;2023-08-20T14:17:10;35.80;19.80
26035;DHT22;13809;48.632;11.576;2023-08-20T14:22:13;35.70;20.00
26035;DHT22;13809;48.632;11.576;2023-08-20T14:27:17;35.70;20.20
26035;DHT22;13809;48.632;11.576;2023-08-20T14:32:21;35.70;19.50
26035;DHT22;13809;48.632;11.576;2023-08-20T14:37:24;35.70;19.80
26035;DHT22;13809;48.632;11.576;2023-08-20T14:42:29;35.70;19.90
26035;DHT22;13809;48.632;11.576;2023-08-20T14:47:32;35.70;19.20
26035;DHT22;13809;48.632;11.576;2023-08-20T14:52:35;35.70;19.80
26035;DHT22;13809;48.632;11.576;2023-08-20T14:57:40;35.70;19.50
26035;DHT22;13809;48.632;11.576;2023-08-20T15:02:53;35.80;19.40
26035;DHT22;13809;48.632;11.576;2023-08-20T15:07:56;35.70;19.50
26035;DHT22;13809;48.632;11.576;2023-08-20T15:13:01;35.80;19.50
26035;DHT22;13809;48.632;11.576;2023-08-20T15:18:05;35.80;18.80
26035;DHT22;13809;48.632;11.576;2023-08-20T15:23:08;35.80;18.90
26035;DHT22;13809;48.632;11.576;2023-08-20T15:28:13;35.80;19.20
26035;DHT22;13809;48.632;11.576;2023-08-20T15:33:17;35.80;18.50
26035;DHT22;13809;48.632;11.576;2023-08-20T15:38:20;35.70;18.90
26035;DHT22;13809;48.632;11.576;2023-08-20T15:43:25;35.70;19.10
26035;DHT22;13809;48.632;11.576;2023-08-20T15:48:28;35.70;18.80
26035;DHT22;13809;48.632;11.576;2023-08-20T15:53:31;35.70;18.70
26035;DHT22;13809;48.632;11.576;2023-08-20T15:58:36;35.70;18.70
26035;DHT22;13809;48.632;11.576;2023-08-20T16:03:40;35.70;18.30
26035;DHT22;13809;48.632;11.576;2023-08-20T16:08:44;35.70;18.50
26035;DHT22;13809;48.632;11.576;2023-08-20T16:13:48;35.70;18.80
26035;DHT22;13809;48.632;11.576;2023-08-20T16:18:52;35.60;18.10
26035;DHT22;13809;48.632;11.576;2023-08-20T16:23:55;35.60;18.80
26035;DHT22;13809;48.632;11.576;2023-08-20T16:29:00;35.60;19.20
26035;DHT22;13809;48.632;11.576;2023-08-20T16:34:03;35.60;18.30
26035;DHT22;13809;48.632;11.576;2023-08-20T16:39:06;35.60;18.70
26035;DHT22;13809;48.632;11.576;2023-08-20T16:44:11;35.50;18.70
26035;DHT22;13809;48.632;11.576;2023-08-20T16:49:16;35.40;18.30
26035;DHT22;13809;48.632;11.576;2023-08-20T16:54:19;35.30;18.60
26035;DHT22;13809;48.632;11.576;2023-08-20T16:59:24;35.30;18.60
26035;DHT22;13809;48.632;11.576;2023-08-20T17:04:27;35.20;18.20
26035;DHT22;13809;48.632;11.576;2023-08-20T17:09:31;35.20;18.60
26035;DHT22;13809;48.632;11.576;2023-08-20T17:14:35;35.20;19.00
26035;DHT22;13809;48.632;11.576;2023-08-20T17:19:39;35.20;20.70
26035;DHT22;13809;48.632;11.576;2023-08-20T17:24:42;35.20;20.80
26035;DHT22;13809;48.632;11.576;2023-08-20T17:29:48;35.20;20.80
26035;DHT22;13809;48.632;11.576;2023-08-20T17:34:51;35.10;21.70
26035;DHT22;13809;48.632;11.576;2023-08-20T17:39:54;35.10;21.40
26035;DHT22;13809;48.632;11.576;2023-08-20T17:44:58;35.10;21.50
26035;DHT22;13809;48.632;11.576;2023-08-20T17:50:02;34.90;22.10
26035;DHT22;13809;48.632;11.576;2023-08-20T17:55:07;34.80;22.40
26035;DHT22;13809;48.632;11.576;2023-08-20T18:00:12;34.70;22.80
26035;DHT22;13809;48.632;11.576;2023-08-20T18:05:16;34.60;23.50
26035;DHT22;13809;48.632;11.576;2023-08-20T18:10:19;34.50;23.40
26035;DHT22;13809;48.632;11.576;2023-08-20T18:15:24;34.40;23.40
26035;DHT22;13809;48.632;11.576;2023-08-20T18:20:27;34.30;23.60
26035;DHT22;13809;48.632;11.576;2023-08-20T18:25:30;34.10;23.30
26035;DHT22;13809;48.632;11.576;2023-08-20T18:30:35;33.80;23.10
26035;DHT22;13809;48.632;11.576;2023-08-20T18:35:39;33.60;23.40
26035;DHT22;13809;48.632;11.576;2023-08-20T18:40:42;33.40;23.30
26035;DHT22;13809;48.632;11.576;2023-08-20T18:45:46;33.20;23.60
26035;DHT22;13809;48.632;11.576;2023-08-20T18:50:50;33.00;24.50
26035;DHT22;13809;48.632;11.576;2023-08-20T18:55:53;32.90;24.30
26035;DHT22;13809;48.632;11.576;2023-08-20T19:00:58;32.70;24.40
26035;DHT22;13809;48.632;11.576;2023-08-20T19:06:01;32.50;24.70
26035;DHT22;13809;48.632;11.576;2023-08-20T19:11:05;32.30;24.60
26035;DHT22;13809;48.632;11.576;2023-08-20T19:16:09;32.10;24.70
26035;DHT22;13809;48.632;11.576;2023-08-20T19:21:12;31.90;25.30
26035;DHT22;13809;48.632;11.576;2023-08-20T19:26:16;31.80;25.20
26035;DHT22;13809;48.632;11.576;2023-08-20T19:31:20;31.50;25.20
26035;DHT22;13809;48.632;11.576;2023-08-20T19:36:24;31.20;25.80
26035;DHT22;13809;48.632;11.576;2023-08-20T19:41:27;30.90;25.90
26035;DHT22;13809;48.632;11.576;2023-08-20T19:46:33;30.70;26.30
26035;DHT22;13809;48.632;11.576;2023-08-20T19:51:36;30.50;26.90
26035;DHT22;13809;48.632;11.576;2023-08-20T19:56:40;30.30;26.70
26035;DHT22;13809;48.632;11.576;2023-08-20T20:01:49;30.00;27.00
26035;DHT22;13809;48.632;11.576;2023-08-20T20:06:53;29.80;28.00
26035;DHT22;13809;48.632;11.576;2023-08-20T20:12:10;29.60;27.60
26035;DHT22;13809;48.632;11.576;2023-08-20T20:17:15;29.40;27.80
26035;DHT22;13809;48.632;11.576;2023-08-20T20:22:18;29.40;28.50
26035;DHT22;13809;48.632;11.576;2023-08-20T20:27:22;29.30;28.20
26035;DHT22;13809;48.632;11.576;2023-08-20T20:32:27;29.30;28.30
26035;DHT22;13809;48.632;11.576;2023-08-20T20:37:31;29.40;29.10
26035;DHT22;13809;48.632;11.576;2023-08-20T20:42:34;29.30;28.70
26035;DHT22;13809;48.632;11.576;2023-08-20T20:47:39;29.30;28.60
26035;DHT22;13809;48.632;11.576;2023-08-20T20:52:43;29.30;29.30
26035;DHT22;13809;48.632;11.576;2023-08-20T20:57:46;29.20;28.90
26035;DHT22;13809;48.632;11.576;2023-08-20T21:02:51;29.00;28.90
26035;DHT22;13809;48.632;11.576;2023-08-20T21:07:54;28.90;29.50
26035;DHT22;13809;48.632;11.576;2023-08-20T21:12:58;28.80;29.60
26035;DHT22;13809;48.632;11.576;2023-08-20T21:18:02;28.60;29.60
26035;DHT22;13809;48.632;11.576;2023-08-20T21:23:06;28.40;30.50
26035;DHT22;13809;48.632;11.576;2023-08-20T21:28:09;28.20;30.30
26035;DHT22;13809;48.632;11.576;2023-08-20T21:33:14;28.00;30.20
26035;DHT22;13809;48.632;11.576;2023-08-20T21:38:17;27.80;30.80
26035;DHT22;13809;48.632;11.576;2023-08-20T21:43:20;27.50;30.80
26035;DHT22;13809;48.632;11.576;2023-08-20T21:48:25;27.20;31.30
26035;DHT22;13809;48.632;11.576;2023-08-20T21:53:28;27.00;32.50
26035;DHT22;13809;48.632;11.576;2023-08-20T21:58:32;26.90;32.10
26035;DHT22;13809;48.632;11.576;2023-08-20T22:03:36;26.90;32.30
26035;DHT22;13809;48.632;11.576;2023-08-20T22:08:39;26.90;32.70
26035;DHT22;13809;48.632;11.576;2023-08-20T22:13:43;27.00;32.50
26035;DHT22;13809;48.632;11.576;2023-08-20T22:18:47;27.10;32.30
26035;DHT22;13809;48.632;11.576;2023-08-20T22:23:51;27.10;32.80
26035;DHT22;13809;48.632;11.576;2023-08-20T22:28:55;27.20;32.40
26035;DHT22;13809;48.632;11.576;2023-08-20T22:33:59;27.20;32.40
26035;DHT22;13809;48.632;11.576;2023-08-20T22:39:03;27.20;32.90
26035;DHT22;13809;48.632;11.576;2023-08-20T22:44:07;27.20;32.50
26035;DHT22;13809;48.632;11.576;2023-08-20T22:49:12;27.20;32.50
26035;DHT22;13809;48.632;11.576;2023-08-20T22:54:15;27.20;33.00
26035;DHT22;13809;48.632;11.576;2023-08-20T22:59:18;27.20;32.50
26035;DHT22;13809;48.632;11.576;2023-08-20T23:04:23;27.10;32.60
26035;DHT22;13809;48.632;11.576;2023-08-20T23:09:26;27.10;33.10
26035;DHT22;13809;48.632;11.576;2023-08-20T23:14:29;27.10;32.60
26035;DHT22;13809;48.632;11.576;2023-08-20T23:19:34;27.10;32.80
26035;DHT22;13809;48.632;11.576;2023-08-20T23:24:37;27.10;33.20
26035;DHT22;13809;48.632;11.576;2023-08-20T23:29:41;27.10;32.90
26035;DHT22;13809;48.632;11.576;2023-08-20T23:34:45;27.00;33.20
26035;DHT22;13809;48.632;11.576;2023-08-20T23:39:48;27.00;33.40
26035;DHT22;13809;48.632;11.576;2023-08-20T23:44:52;27.00;33.30
26035;DHT22;13809;48.632;11.576;2023-08-20T23:49:58;27.00;33.40
26035;DHT22;13809;48.632;11.576;2023-08-20T23:55:01;26.90;33.80
